BHD weather

George Best Belfast City Airport
Belfast, Northern Ireland, United Kingdom

Public forecast

Using degrees Celsius for public forecast. Weather courtesy of forecast.io.

METAR (pilot weather report)

Retrieved 2019/03/26 03:20 UTC (22 minutes ago):

EGAC 260320Z AUTO 22004KT 9999 OVC039/// 06/05 Q1035

TAF (pilot weather forecast)

Forecast is more than 12 hours old.

Closest forecast is Belfast International Airport, 12.2 nm (22.5 km) WNW. Retrieved 2019/03/25 00:00 UTC (1 day ago):

TAF EGAA 252258Z 2600/2624 20004KT 9999 SCT030 PROB30 2600/2609 7000 BECMG 2609/2612 26010KT